sensor_id;sensor_type;location;lat;lon;timestamp;P1;durP1;ratioP1;P2;durP2;ratioP2
3006;SDS011;1513;47.650;10.720;2023-04-15T00:02:17;4.03;;;1.60;;
3006;SDS011;1513;47.650;10.720;2023-04-15T00:04:45;6.97;;;2.47;;
3006;SDS011;1513;47.650;10.720;2023-04-15T00:07:12;6.70;;;3.17;;
3006;SDS011;1513;47.650;10.720;2023-04-15T00:09:40;3.90;;;2.40;;
3006;SDS011;1513;47.650;10.720;2023-04-15T00:12:07;9.03;;;2.47;;
3006;SDS011;1513;47.650;10.720;2023-04-15T00:14:34;3.20;;;2.10;;
3006;SDS011;1513;47.650;10.720;2023-04-15T00:17:01;2.27;;;1.93;;
3006;SDS011;1513;47.650;10.720;2023-04-15T00:19:27;2.97;;;1.77;;
3006;SDS011;1513;47.650;10.720;2023-04-15T00:21:54;9.20;;;2.27;;
3006;SDS011;1513;47.650;10.720;2023-04-15T00:24:20;4.37;;;2.17;;
3006;SDS011;1513;47.650;10.720;2023-04-15T00:26:47;4.40;;;2.63;;
3006;SDS011;1513;47.650;10.720;2023-04-15T00:29:14;4.13;;;1.70;;
3006;SDS011;1513;47.650;10.720;2023-04-15T00:31:40;3.03;;;2.00;;
3006;SDS011;1513;47.650;10.720;2023-04-15T00:34:06;7.40;;;2.43;;
3006;SDS011;1513;47.650;10.720;2023-04-15T00:36:33;2.10;;;1.80;;
3006;SDS011;1513;47.650;10.720;2023-04-15T00:39:00;3.57;;;2.47;;
3006;SDS011;1513;47.650;10.720;2023-04-15T00:41:27;3.17;;;2.30;;
3006;SDS011;1513;47.650;10.720;2023-04-15T00:43:53;5.30;;;2.23;;
3006;SDS011;1513;47.650;10.720;2023-04-15T00:46:20;6.27;;;2.03;;
3006;SDS011;1513;47.650;10.720;2023-04-15T00:48:47;4.53;;;1.83;;
3006;SDS011;1513;47.650;10.720;2023-04-15T00:51:13;2.53;;;1.80;;
3006;SDS011;1513;47.650;10.720;2023-04-15T00:53:40;1.80;;;1.70;;
3006;SDS011;1513;47.650;10.720;2023-04-15T00:56:06;3.97;;;2.10;;
3006;SDS011;1513;47.650;10.720;2023-04-15T00:58:32;2.20;;;2.00;;
3006;SDS011;1513;47.650;10.720;2023-04-15T01:00:59;3.20;;;2.10;;
3006;SDS011;1513;47.650;10.720;2023-04-15T01:03:25;5.67;;;1.93;;
3006;SDS011;1513;47.650;10.720;2023-04-15T01:05:52;4.70;;;1.90;;
3006;SDS011;1513;47.650;10.720;2023-04-15T01:08:28;4.87;;;2.37;;
3006;SDS011;1513;47.650;10.720;2023-04-15T01:10:59;3.37;;;1.80;;
3006;SDS011;1513;47.650;10.720;2023-04-15T01:13:27;3.20;;;2.30;;
3006;SDS011;1513;47.650;10.720;2023-04-15T01:15:54;2.13;;;1.80;;
3006;SDS011;1513;47.650;10.720;2023-04-15T01:18:22;4.60;;;1.70;;
3006;SDS011;1513;47.650;10.720;2023-04-15T01:20:52;3.33;;;1.97;;
3006;SDS011;1513;47.650;10.720;2023-04-15T01:23:21;4.47;;;2.47;;
3006;SDS011;1513;47.650;10.720;2023-04-15T01:25:48;2.70;;;2.00;;
3006;SDS011;1513;47.650;10.720;2023-04-15T01:28:15;3.93;;;2.90;;
3006;SDS011;1513;47.650;10.720;2023-04-15T01:30:41;5.83;;;2.00;;
3006;SDS011;1513;47.650;10.720;2023-04-15T01:33:07;4.43;;;2.27;;
3006;SDS011;1513;47.650;10.720;2023-04-15T01:35:33;4.30;;;1.83;;
3006;SDS011;1513;47.650;10.720;2023-04-15T01:38:07;2.67;;;1.63;;
3006;SDS011;1513;47.650;10.720;2023-04-15T01:40:36;4.83;;;2.00;;
3006;SDS011;1513;47.650;10.720;2023-04-15T01:43:02;4.27;;;2.33;;
3006;SDS011;1513;47.650;10.720;2023-04-15T01:45:29;4.90;;;2.60;;
3006;SDS011;1513;47.650;10.720;2023-04-15T01:47:55;6.97;;;2.37;;
3006;SDS011;1513;47.650;10.720;2023-04-15T01:50:21;3.30;;;2.20;;
3006;SDS011;1513;47.650;10.720;2023-04-15T01:52:47;4.70;;;2.40;;
3006;SDS011;1513;47.650;10.720;2023-04-15T01:55:14;4.30;;;2.00;;
3006;SDS011;1513;47.650;10.720;2023-04-15T01:57:40;3.73;;;1.67;;
3006;SDS011;1513;47.650;10.720;2023-04-15T02:00:06;5.87;;;2.50;;
3006;SDS011;1513;47.650;10.720;2023-04-15T02:02:40;3.20;;;2.07;;
3006;SDS011;1513;47.650;10.720;2023-04-15T02:05:07;3.13;;;1.97;;
3006;SDS011;1513;47.650;10.720;2023-04-15T02:07:35;2.73;;;2.23;;
3006;SDS011;1513;47.650;10.720;2023-04-15T02:10:02;3.20;;;2.00;;
3006;SDS011;1513;47.650;10.720;2023-04-15T02:12:28;4.00;;;2.33;;
3006;SDS011;1513;47.650;10.720;2023-04-15T02:14:54;5.93;;;2.20;;
3006;SDS011;1513;47.650;10.720;2023-04-15T02:17:21;6.43;;;2.20;;
3006;SDS011;1513;47.650;10.720;2023-04-15T02:19:48;4.40;;;2.30;;
3006;SDS011;1513;47.650;10.720;2023-04-15T02:22:14;4.73;;;2.33;;
3006;SDS011;1513;47.650;10.720;2023-04-15T02:24:44;6.90;;;2.93;;
3006;SDS011;1513;47.650;10.720;2023-04-15T02:27:14;2.17;;;1.97;;
3006;SDS011;1513;47.650;10.720;2023-04-15T02:29:42;7.10;;;1.80;;
3006;SDS011;1513;47.650;10.720;2023-04-15T02:32:09;2.87;;;1.87;;
3006;SDS011;1513;47.650;10.720;2023-04-15T02:34:39;3.33;;;1.53;;
3006;SDS011;1513;47.650;10.720;2023-04-15T02:37:11;3.23;;;2.03;;
3006;SDS011;1513;47.650;10.720;2023-04-15T02:39:38;2.90;;;2.00;;
3006;SDS011;1513;47.650;10.720;2023-04-15T02:42:04;2.60;;;1.80;;
3006;SDS011;1513;47.650;10.720;2023-04-15T02:44:31;1.40;;;1.30;;
3006;SDS011;1513;47.650;10.720;2023-04-15T02:47:01;4.60;;;2.10;;
3006;SDS011;1513;47.650;10.720;2023-04-15T02:49:29;2.90;;;1.67;;
3006;SDS011;1513;47.650;10.720;2023-04-15T02:51:55;5.07;;;1.90;;
3006;SDS011;1513;47.650;10.720;2023-04-15T02:54:22;8.50;;;2.20;;
3006;SDS011;1513;47.650;10.720;2023-04-15T02:56:49;6.97;;;2.70;;
3006;SDS011;1513;47.650;10.720;2023-04-15T02:59:19;14.20;;;7.40;;
3006;SDS011;1513;47.650;10.720;2023-04-15T03:01:45;6.73;;;2.80;;
3006;SDS011;1513;47.650;10.720;2023-04-15T03:04:11;1.97;;;1.33;;
3006;SDS011;1513;47.650;10.720;2023-04-15T03:06:38;3.40;;;1.40;;
3006;SDS011;1513;47.650;10.720;2023-04-15T03:09:07;4.47;;;1.10;;
3006;SDS011;1513;47.650;10.720;2023-04-15T03:11:34;1.13;;;1.00;;
3006;SDS011;1513;47.650;10.720;2023-04-15T03:14:05;1.53;;;1.00;;
3006;SDS011;1513;47.650;10.720;2023-04-15T03:16:34;3.30;;;1.20;;
3006;SDS011;1513;47.650;10.720;2023-04-15T03:19:00;2.47;;;1.20;;
3006;SDS011;1513;47.650;10.720;2023-04-15T03:21:27;1.90;;;1.10;;
3006;SDS011;1513;47.650;10.720;2023-04-15T03:23:53;3.33;;;1.13;;
3006;SDS011;1513;47.650;10.720;2023-04-15T03:26:25;4.73;;;1.47;;
3006;SDS011;1513;47.650;10.720;2023-04-15T03:28:55;3.00;;;1.20;;
3006;SDS011;1513;47.650;10.720;2023-04-15T03:31:21;1.90;;;1.00;;
3006;SDS011;1513;47.650;10.720;2023-04-15T03:33:47;3.40;;;1.70;;
3006;SDS011;1513;47.650;10.720;2023-04-15T03:36:14;28.17;;;10.77;;
3006;SDS011;1513;47.650;10.720;2023-04-15T03:38:41;11.30;;;4.60;;
3006;SDS011;1513;47.650;10.720;2023-04-15T03:41:07;4.67;;;3.07;;
3006;SDS011;1513;47.650;10.720;2023-04-15T03:43:34;3.53;;;3.10;;
3006;SDS011;1513;47.650;10.720;2023-04-15T03:46:00;2.87;;;2.40;;
3006;SDS011;1513;47.650;10.720;2023-04-15T03:48:27;2.60;;;1.50;;
3006;SDS011;1513;47.650;10.720;2023-04-15T03:50:53;1.20;;;1.10;;
3006;SDS011;1513;47.650;10.720;2023-04-15T03:53:20;2.37;;;1.33;;
3006;SDS011;1513;47.650;10.720;2023-04-15T03:55:46;4.13;;;1.10;;
3006;SDS011;1513;47.650;10.720;2023-04-15T03:58:13;3.07;;;1.53;;
3006;SDS011;1513;47.650;10.720;2023-04-15T04:00:39;2.73;;;1.50;;
3006;SDS011;1513;47.650;10.720;2023-04-15T04:03:06;1.30;;;1.20;;
3006;SDS011;1513;47.650;10.720;2023-04-15T04:05:32;3.47;;;1.27;;
3006;SDS011;1513;47.650;10.720;2023-04-15T04:08:03;1.00;;;1.00;;
3006;SDS011;1513;47.650;10.720;2023-04-15T04:10:29;3.50;;;1.30;;
3006;SDS011;1513;47.650;10.720;2023-04-15T04:12:55;5.80;;;1.33;;
3006;SDS011;1513;47.650;10.720;2023-04-15T04:15:21;2.23;;;1.10;;
3006;SDS011;1513;47.650;10.720;2023-04-15T04:17:48;1.10;;;1.00;;
3006;SDS011;1513;47.650;10.720;2023-04-15T04:20:14;1.60;;;1.23;;
3006;SDS011;1513;47.650;10.720;2023-04-15T04:22:40;0.97;;;0.93;;
3006;SDS011;1513;47.650;10.720;2023-04-15T04:25:08;2.40;;;2.10;;
3006;SDS011;1513;47.650;10.720;2023-04-15T04:27:35;2.90;;;1.37;;
3006;SDS011;1513;47.650;10.720;2023-04-15T04:30:02;4.60;;;0.90;;
3006;SDS011;1513;47.650;10.720;2023-04-15T04:32:29;1.50;;;0.90;;
3006;SDS011;1513;47.650;10.720;2023-04-15T04:34:56;2.10;;;0.70;;
3006;SDS011;1513;47.650;10.720;2023-04-15T04:37:22;1.13;;;0.90;;
3006;SDS011;1513;47.650;10.720;2023-04-15T04:39:49;0.90;;;0.90;;
3006;SDS011;1513;47.650;10.720;2023-04-15T04:42:15;1.87;;;1.07;;
3006;SDS011;1513;47.650;10.720;2023-04-15T04:44:41;1.00;;;0.87;;
3006;SDS011;1513;47.650;10.720;2023-04-15T04:47:07;1.07;;;0.90;;
3006;SDS011;1513;47.650;10.720;2023-04-15T04:49:34;2.20;;;0.80;;
3006;SDS011;1513;47.650;10.720;2023-04-15T04:52:00;1.50;;;1.07;;
3006;SDS011;1513;47.650;10.720;2023-04-15T04:54:27;1.47;;;1.00;;
3006;SDS011;1513;47.650;10.720;2023-04-15T04:56:55;1.13;;;1.13;;
3006;SDS011;1513;47.650;10.720;2023-04-15T04:59:22;1.43;;;0.90;;
3006;SDS011;1513;47.650;10.720;2023-04-15T05:01:48;1.93;;;1.30;;
3006;SDS011;1513;47.650;10.720;2023-04-15T05:04:15;2.93;;;1.20;;
3006;SDS011;1513;47.650;10.720;2023-04-15T05:06:41;7.70;;;2.37;;
3006;SDS011;1513;47.650;10.720;2023-04-15T05:09:07;8.43;;;4.30;;
3006;SDS011;1513;47.650;10.720;2023-04-15T05:11:34;5.70;;;3.37;;
3006;SDS011;1513;47.650;10.720;2023-04-15T05:14:00;6.90;;;3.17;;
3006;SDS011;1513;47.650;10.720;2023-04-15T05:16:26;11.90;;;4.63;;
3006;SDS011;1513;47.650;10.720;2023-04-15T05:18:53;8.03;;;4.00;;
3006;SDS011;1513;47.650;10.720;2023-04-15T05:21:19;5.23;;;2.13;;
3006;SDS011;1513;47.650;10.720;2023-04-15T05:23:45;4.23;;;1.77;;
3006;SDS011;1513;47.650;10.720;2023-04-15T05:26:12;4.10;;;1.50;;
3006;SDS011;1513;47.650;10.720;2023-04-15T05:28:38;1.00;;;1.00;;
3006;SDS011;1513;47.650;10.720;2023-04-15T05:31:04;2.77;;;1.77;;
3006;SDS011;1513;47.650;10.720;2023-04-15T05:33:31;5.67;;;1.50;;
3006;SDS011;1513;47.650;10.720;2023-04-15T05:35:57;1.80;;;1.20;;
3006;SDS011;1513;47.650;10.720;2023-04-15T05:38:24;1.60;;;1.17;;
3006;SDS011;1513;47.650;10.720;2023-04-15T05:40:50;3.60;;;1.87;;
3006;SDS011;1513;47.650;10.720;2023-04-15T05:43:16;2.00;;;1.17;;
3006;SDS011;1513;47.650;10.720;2023-04-15T05:45:42;3.40;;;0.97;;
3006;SDS011;1513;47.650;10.720;2023-04-15T05:48:08;2.40;;;1.30;;
3006;SDS011;1513;47.650;10.720;2023-04-15T05:50:35;1.20;;;1.13;;
3006;SDS011;1513;47.650;10.720;2023-04-15T05:53:01;3.27;;;1.20;;
3006;SDS011;1513;47.650;10.720;2023-04-15T05:55:27;6.10;;;1.47;;
3006;SDS011;1513;47.650;10.720;2023-04-15T05:57:54;6.80;;;1.20;;
3006;SDS011;1513;47.650;10.720;2023-04-15T06:00:20;4.73;;;1.20;;
3006;SDS011;1513;47.650;10.720;2023-04-15T06:02:53;3.80;;;1.20;;
3006;SDS011;1513;47.650;10.720;2023-04-15T06:05:20;1.97;;;1.30;;
3006;SDS011;1513;47.650;10.720;2023-04-15T06:07:46;2.63;;;1.43;;
3006;SDS011;1513;47.650;10.720;2023-04-15T06:10:13;6.33;;;1.50;;
3006;SDS011;1513;47.650;10.720;2023-04-15T06:12:40;2.10;;;1.00;;
3006;SDS011;1513;47.650;10.720;2023-04-15T06:15:06;4.00;;;1.53;;
3006;SDS011;1513;47.650;10.720;2023-04-15T06:17:34;3.77;;;1.47;;
3006;SDS011;1513;47.650;10.720;2023-04-15T06:20:01;1.47;;;1.37;;
3006;SDS011;1513;47.650;10.720;2023-04-15T06:22:28;1.53;;;1.07;;
3006;SDS011;1513;47.650;10.720;2023-04-15T06:24:55;5.10;;;1.30;;
3006;SDS011;1513;47.650;10.720;2023-04-15T06:27:21;1.23;;;0.73;;
3006;SDS011;1513;47.650;10.720;2023-04-15T06:29:47;2.63;;;1.00;;
3006;SDS011;1513;47.650;10.720;2023-04-15T06:32:14;3.17;;;1.10;;
3006;SDS011;1513;47.650;10.720;2023-04-15T06:34:40;3.77;;;1.00;;
3006;SDS011;1513;47.650;10.720;2023-04-15T06:37:06;1.00;;;0.90;;
3006;SDS011;1513;47.650;10.720;2023-04-15T06:39:35;3.37;;;1.27;;
3006;SDS011;1513;47.650;10.720;2023-04-15T06:42:01;2.33;;;1.13;;
3006;SDS011;1513;47.650;10.720;2023-04-15T06:44:28;2.20;;;1.00;;
3006;SDS011;1513;47.650;10.720;2023-04-15T06:46:55;2.20;;;1.27;;
3006;SDS011;1513;47.650;10.720;2023-04-15T06:49:21;3.37;;;1.10;;
3006;SDS011;1513;47.650;10.720;2023-04-15T06:51:47;5.60;;;0.90;;
3006;SDS011;1513;47.650;10.720;2023-04-15T06:54:13;4.10;;;1.33;;
3006;SDS011;1513;47.650;10.720;2023-04-15T06:56:40;2.50;;;1.23;;
3006;SDS011;1513;47.650;10.720;2023-04-15T06:59:06;3.23;;;1.57;;
3006;SDS011;1513;47.650;10.720;2023-04-15T07:01:33;1.73;;;0.80;;
3006;SDS011;1513;47.650;10.720;2023-04-15T07:03:59;1.30;;;1.10;;
3006;SDS011;1513;47.650;10.720;2023-04-15T07:06:26;4.13;;;0.93;;
3006;SDS011;1513;47.650;10.720;2023-04-15T07:08:53;2.67;;;1.60;;
3006;SDS011;1513;47.650;10.720;2023-04-15T07:11:19;3.17;;;1.10;;
3006;SDS011;1513;47.650;10.720;2023-04-15T07:13:46;2.53;;;1.20;;
3006;SDS011;1513;47.650;10.720;2023-04-15T07:16:12;2.97;;;1.37;;
3006;SDS011;1513;47.650;10.720;2023-04-15T07:18:38;3.00;;;1.20;;
3006;SDS011;1513;47.650;10.720;2023-04-15T07:21:04;2.37;;;1.10;;
3006;SDS011;1513;47.650;10.720;2023-04-15T07:23:31;1.53;;;1.30;;
3006;SDS011;1513;47.650;10.720;2023-04-15T07:25:57;2.80;;;1.20;;
3006;SDS011;1513;47.650;10.720;2023-04-15T07:28:23;2.40;;;1.20;;
3006;SDS011;1513;47.650;10.720;2023-04-15T07:30:50;2.27;;;1.30;;
3006;SDS011;1513;47.650;10.720;2023-04-15T07:33:16;1.60;;;1.30;;
3006;SDS011;1513;47.650;10.720;2023-04-15T07:35:42;3.30;;;1.33;;
3006;SDS011;1513;47.650;10.720;2023-04-15T07:38:09;2.93;;;1.70;;
3006;SDS011;1513;47.650;10.720;2023-04-15T07:40:37;4.33;;;1.80;;
3006;SDS011;1513;47.650;10.720;2023-04-15T07:43:04;3.53;;;2.10;;
3006;SDS011;1513;47.650;10.720;2023-04-15T07:45:31;4.53;;;1.67;;
3006;SDS011;1513;47.650;10.720;2023-04-15T07:47:57;2.30;;;1.63;;
3006;SDS011;1513;47.650;10.720;2023-04-15T07:50:23;4.30;;;1.67;;
3006;SDS011;1513;47.650;10.720;2023-04-15T07:52:50;2.30;;;1.77;;
3006;SDS011;1513;47.650;10.720;2023-04-15T07:55:17;3.23;;;1.40;;
3006;SDS011;1513;47.650;10.720;2023-04-15T07:57:45;1.63;;;1.30;;
3006;SDS011;1513;47.650;10.720;2023-04-15T08:00:14;2.37;;;1.30;;
3006;SDS011;1513;47.650;10.720;2023-04-15T08:02:41;4.70;;;1.97;;
3006;SDS011;1513;47.650;10.720;2023-04-15T08:05:08;4.83;;;1.60;;
3006;SDS011;1513;47.650;10.720;2023-04-15T08:07:35;3.20;;;1.80;;
3006;SDS011;1513;47.650;10.720;2023-04-15T08:10:02;4.70;;;1.70;;
3006;SDS011;1513;47.650;10.720;2023-04-15T08:12:29;1.50;;;1.30;;
3006;SDS011;1513;47.650;10.720;2023-04-15T08:14:55;2.10;;;1.27;;
3006;SDS011;1513;47.650;10.720;2023-04-15T08:17:22;3.90;;;1.90;;
3006;SDS011;1513;47.650;10.720;2023-04-15T08:19:49;2.47;;;1.80;;
3006;SDS011;1513;47.650;10.720;2023-04-15T08:22:15;2.93;;;1.50;;
3006;SDS011;1513;47.650;10.720;2023-04-15T08:24:41;4.13;;;1.47;;
3006;SDS011;1513;47.650;10.720;2023-04-15T08:27:08;6.47;;;1.93;;
3006;SDS011;1513;47.650;10.720;2023-04-15T08:29:34;3.00;;;1.50;;
3006;SDS011;1513;47.650;10.720;2023-04-15T08:32:00;4.57;;;2.00;;
3006;SDS011;1513;47.650;10.720;2023-04-15T08:34:27;2.20;;;1.70;;
3006;SDS011;1513;47.650;10.720;2023-04-15T08:36:53;3.43;;;1.63;;
3006;SDS011;1513;47.650;10.720;2023-04-15T08:39:19;3.30;;;1.63;;
3006;SDS011;1513;47.650;10.720;2023-04-15T08:41:46;2.10;;;1.57;;
3006;SDS011;1513;47.650;10.720;2023-04-15T08:44:16;4.33;;;1.77;;
3006;SDS011;1513;47.650;10.720;2023-04-15T08:46:44;3.40;;;1.50;;
3006;SDS011;1513;47.650;10.720;2023-04-15T08:49:11;3.73;;;1.90;;
3006;SDS011;1513;47.650;10.720;2023-04-15T08:51:40;4.20;;;1.90;;
3006;SDS011;1513;47.650;10.720;2023-04-15T08:54:07;2.23;;;1.10;;
3006;SDS011;1513;47.650;10.720;2023-04-15T08:56:34;2.20;;;1.47;;
3006;SDS011;1513;47.650;10.720;2023-04-15T08:59:01;3.13;;;1.63;;
3006;SDS011;1513;47.650;10.720;2023-04-15T09:01:27;3.53;;;1.37;;
3006;SDS011;1513;47.650;10.720;2023-04-15T09:03:54;2.40;;;1.50;;
3006;SDS011;1513;47.650;10.720;2023-04-15T09:06:21;2.70;;;1.60;;
3006;SDS011;1513;47.650;10.720;2023-04-15T09:08:51;2.70;;;1.30;;
3006;SDS011;1513;47.650;10.720;2023-04-15T09:11:17;3.60;;;1.10;;
3006;SDS011;1513;47.650;10.720;2023-04-15T09:13:44;6.57;;;1.67;;
3006;SDS011;1513;47.650;10.720;2023-04-15T09:16:10;2.50;;;1.60;;
3006;SDS011;1513;47.650;10.720;2023-04-15T09:18:53;6.03;;;1.40;;
3006;SDS011;1513;47.650;10.720;2023-04-15T09:21:19;2.80;;;1.50;;
3006;SDS011;1513;47.650;10.720;2023-04-15T09:23:55;3.70;;;1.13;;
3006;SDS011;1513;47.650;10.720;2023-04-15T09:26:35;4.60;;;1.67;;
3006;SDS011;1513;47.650;10.720;2023-04-15T09:29:05;2.10;;;1.20;;
3006;SDS011;1513;47.650;10.720;2023-04-15T09:31:33;1.27;;;1.17;;
3006;SDS011;1513;47.650;10.720;2023-04-15T09:34:01;2.27;;;1.60;;
3006;SDS011;1513;47.650;10.720;2023-04-15T09:36:27;3.83;;;1.60;;
3006;SDS011;1513;47.650;10.720;2023-04-15T09:38:55;3.47;;;1.40;;
3006;SDS011;1513;47.650;10.720;2023-04-15T09:41:22;2.50;;;1.20;;
3006;SDS011;1513;47.650;10.720;2023-04-15T09:43:49;2.77;;;1.60;;
3006;SDS011;1513;47.650;10.720;2023-04-15T09:46:15;6.07;;;1.60;;
3006;SDS011;1513;47.650;10.720;2023-04-15T09:48:41;2.30;;;1.80;;
3006;SDS011;1513;47.650;10.720;2023-04-15T09:51:07;4.60;;;1.53;;
3006;SDS011;1513;47.650;10.720;2023-04-15T09:53:34;5.03;;;1.70;;
3006;SDS011;1513;47.650;10.720;2023-04-15T09:56:01;6.13;;;1.90;;
3006;SDS011;1513;47.650;10.720;2023-04-15T09:58:29;17.80;;;1.70;;
3006;SDS011;1513;47.650;10.720;2023-04-15T10:00:57;3.40;;;1.43;;
3006;SDS011;1513;47.650;10.720;2023-04-15T10:03:30;5.30;;;1.87;;
3006;SDS011;1513;47.650;10.720;2023-04-15T10:05:59;1.73;;;1.23;;
3006;SDS011;1513;47.650;10.720;2023-04-15T10:08:28;3.20;;;1.20;;
3006;SDS011;1513;47.650;10.720;2023-04-15T10:10:55;3.97;;;2.00;;
3006;SDS011;1513;47.650;10.720;2023-04-15T10:13:23;4.53;;;2.33;;
3006;SDS011;1513;47.650;10.720;2023-04-15T10:15:55;10.77;;;3.40;;
3006;SDS011;1513;47.650;10.720;2023-04-15T10:18:24;6.63;;;2.57;;
3006;SDS011;1513;47.650;10.720;2023-04-15T10:20:52;6.77;;;1.90;;
3006;SDS011;1513;47.650;10.720;2023-04-15T10:23:19;3.47;;;1.40;;
3006;SDS011;1513;47.650;10.720;2023-04-15T10:25:47;2.33;;;1.67;;
3006;SDS011;1513;47.650;10.720;2023-04-15T10:28:15;3.73;;;1.47;;
3006;SDS011;1513;47.650;10.720;2023-04-15T10:30:41;3.07;;;2.00;;
3006;SDS011;1513;47.650;10.720;2023-04-15T10:33:08;2.20;;;1.00;;
3006;SDS011;1513;47.650;10.720;2023-04-15T10:35:35;7.47;;;1.73;;
3006;SDS011;1513;47.650;10.720;2023-04-15T10:38:02;8.10;;;2.50;;
3006;SDS011;1513;47.650;10.720;2023-04-15T10:41:18;5.27;;;2.73;;
3006;SDS011;1513;47.650;10.720;2023-04-15T10:43:53;3.13;;;1.90;;
3006;SDS011;1513;47.650;10.720;2023-04-15T10:49:06;7.20;;;2.53;;
3006;SDS011;1513;47.650;10.720;2023-04-15T10:51:33;2.50;;;1.57;;
3006;SDS011;1513;47.650;10.720;2023-04-15T10:54:12;2.00;;;1.27;;
3006;SDS011;1513;47.650;10.720;2023-04-15T10:56:41;5.60;;;2.00;;
3006;SDS011;1513;47.650;10.720;2023-04-15T10:59:08;4.23;;;1.93;;
3006;SDS011;1513;47.650;10.720;2023-04-15T11:07:40;6.80;;;2.70;;
3006;SDS011;1513;47.650;10.720;2023-04-15T11:13:06;5.07;;;1.80;;
3006;SDS011;1513;47.650;10.720;2023-04-15T11:15:44;6.40;;;1.80;;
3006;SDS011;1513;47.650;10.720;2023-04-15T11:20:43;4.07;;;2.07;;
3006;SDS011;1513;47.650;10.720;2023-04-15T11:23:18;4.87;;;1.67;;
3006;SDS011;1513;47.650;10.720;2023-04-15T11:25:53;1.50;;;1.40;;
3006;SDS011;1513;47.650;10.720;2023-04-15T11:28:20;2.23;;;1.20;;
3006;SDS011;1513;47.650;10.720;2023-04-15T11:30:51;4.47;;;1.83;;
3006;SDS011;1513;47.650;10.720;2023-04-15T11:33:18;3.30;;;1.40;;
3006;SDS011;1513;47.650;10.720;2023-04-15T11:35:44;5.07;;;1.60;;
3006;SDS011;1513;47.650;10.720;2023-04-15T11:38:11;6.50;;;1.73;;
3006;SDS011;1513;47.650;10.720;2023-04-15T11:40:38;2.03;;;1.00;;
3006;SDS011;1513;47.650;10.720;2023-04-15T11:43:15;5.13;;;1.93;;
3006;SDS011;1513;47.650;10.720;2023-04-15T11:45:49;1.53;;;1.07;;
3006;SDS011;1513;47.650;10.720;2023-04-15T11:48:16;3.83;;;1.30;;
3006;SDS011;1513;47.650;10.720;2023-04-15T11:50:43;6.07;;;1.60;;
3006;SDS011;1513;47.650;10.720;2023-04-15T11:53:10;3.60;;;1.43;;
3006;SDS011;1513;47.650;10.720;2023-04-15T11:55:40;1.60;;;1.30;;
3006;SDS011;1513;47.650;10.720;2023-04-15T11:58:15;1.40;;;1.20;;
3006;SDS011;1513;47.650;10.720;2023-04-15T12:00:53;1.90;;;1.77;;
3006;SDS011;1513;47.650;10.720;2023-04-15T12:14:26;2.73;;;1.40;;
3006;SDS011;1513;47.650;10.720;2023-04-15T12:16:55;7.20;;;1.97;;
3006;SDS011;1513;47.650;10.720;2023-04-15T12:21:57;3.80;;;1.70;;
3006;SDS011;1513;47.650;10.720;2023-04-15T12:24:34;5.47;;;1.40;;
3006;SDS011;1513;47.650;10.720;2023-04-15T12:27:05;3.63;;;1.60;;
3006;SDS011;1513;47.650;10.720;2023-04-15T12:29:38;2.03;;;1.00;;
3006;SDS011;1513;47.650;10.720;2023-04-15T12:32:09;4.20;;;1.00;;
3006;SDS011;1513;47.650;10.720;2023-04-15T12:34:37;1.13;;;1.03;;
3006;SDS011;1513;47.650;10.720;2023-04-15T12:37:04;2.83;;;1.10;;
3006;SDS011;1513;47.650;10.720;2023-04-15T12:39:34;3.90;;;1.33;;
3006;SDS011;1513;47.650;10.720;2023-04-15T12:42:02;2.13;;;1.30;;
3006;SDS011;1513;47.650;10.720;2023-04-15T12:44:29;3.53;;;1.10;;
3006;SDS011;1513;47.650;10.720;2023-04-15T12:46:57;1.27;;;1.17;;
3006;SDS011;1513;47.650;10.720;2023-04-15T12:49:24;2.20;;;1.00;;
3006;SDS011;1513;47.650;10.720;2023-04-15T12:51:52;2.87;;;1.33;;
3006;SDS011;1513;47.650;10.720;2023-04-15T12:54:19;3.70;;;1.50;;
3006;SDS011;1513;47.650;10.720;2023-04-15T12:56:46;3.23;;;1.37;;
3006;SDS011;1513;47.650;10.720;2023-04-15T12:59:14;3.40;;;1.30;;
3006;SDS011;1513;47.650;10.720;2023-04-15T13:01:43;4.03;;;1.50;;
3006;SDS011;1513;47.650;10.720;2023-04-15T13:04:09;2.90;;;1.47;;
3006;SDS011;1513;47.650;10.720;2023-04-15T13:06:36;4.53;;;1.40;;
3006;SDS011;1513;47.650;10.720;2023-04-15T13:09:02;5.10;;;1.30;;
3006;SDS011;1513;47.650;10.720;2023-04-15T13:11:29;3.70;;;1.40;;
3006;SDS011;1513;47.650;10.720;2023-04-15T13:13:55;7.70;;;3.53;;
3006;SDS011;1513;47.650;10.720;2023-04-15T13:16:22;8.03;;;3.40;;
3006;SDS011;1513;47.650;10.720;2023-04-15T13:18:49;7.77;;;3.27;;
3006;SDS011;1513;47.650;10.720;2023-04-15T13:21:15;8.30;;;4.80;;
3006;SDS011;1513;47.650;10.720;2023-04-15T13:23:42;8.20;;;5.40;;
3006;SDS011;1513;47.650;10.720;2023-04-15T13:26:09;7.03;;;4.57;;
3006;SDS011;1513;47.650;10.720;2023-04-15T13:28:35;6.93;;;4.77;;
3006;SDS011;1513;47.650;10.720;2023-04-15T13:31:02;6.77;;;4.30;;
3006;SDS011;1513;47.650;10.720;2023-04-15T13:33:29;10.93;;;4.83;;
3006;SDS011;1513;47.650;10.720;2023-04-15T13:35:55;10.20;;;6.57;;
3006;SDS011;1513;47.650;10.720;2023-04-15T13:38:23;10.43;;;4.73;;
3006;SDS011;1513;47.650;10.720;2023-04-15T13:40:49;8.83;;;5.90;;
3006;SDS011;1513;47.650;10.720;2023-04-15T13:43:16;43.63;;;25.30;;
3006;SDS011;1513;47.650;10.720;2023-04-15T13:45:42;13.90;;;8.00;;
3006;SDS011;1513;47.650;10.720;2023-04-15T13:48:11;17.87;;;9.37;;
3006;SDS011;1513;47.650;10.720;2023-04-15T13:50:37;10.40;;;6.57;;
3006;SDS011;1513;47.650;10.720;2023-04-15T13:53:03;11.93;;;7.13;;
3006;SDS011;1513;47.650;10.720;2023-04-15T13:55:30;13.83;;;9.10;;
3006;SDS011;1513;47.650;10.720;2023-04-15T13:57:59;15.43;;;10.03;;
3006;SDS011;1513;47.650;10.720;2023-04-15T14:00:25;14.03;;;7.60;;
3006;SDS011;1513;47.650;10.720;2023-04-15T14:02:51;10.83;;;6.67;;
3006;SDS011;1513;47.650;10.720;2023-04-15T14:05:17;12.80;;;6.60;;
3006;SDS011;1513;47.650;10.720;2023-04-15T14:07:43;10.03;;;6.73;;
3006;SDS011;1513;47.650;10.720;2023-04-15T14:10:10;9.80;;;7.00;;
3006;SDS011;1513;47.650;10.720;2023-04-15T14:12:36;7.83;;;5.30;;
3006;SDS011;1513;47.650;10.720;2023-04-15T14:15:02;13.63;;;7.47;;
3006;SDS011;1513;47.650;10.720;2023-04-15T14:17:29;14.73;;;7.60;;
3006;SDS011;1513;47.650;10.720;2023-04-15T14:19:55;10.33;;;7.40;;
3006;SDS011;1513;47.650;10.720;2023-04-15T14:22:21;8.10;;;6.37;;
3006;SDS011;1513;47.650;10.720;2023-04-15T14:24:47;17.43;;;7.50;;
3006;SDS011;1513;47.650;10.720;2023-04-15T14:27:17;25.50;;;13.30;;
3006;SDS011;1513;47.650;10.720;2023-04-15T14:29:43;35.67;;;13.90;;
3006;SDS011;1513;47.650;10.720;2023-04-15T14:32:09;13.03;;;6.83;;
3006;SDS011;1513;47.650;10.720;2023-04-15T14:34:36;11.53;;;7.00;;
3006;SDS011;1513;47.650;10.720;2023-04-15T14:37:02;10.53;;;6.17;;
3006;SDS011;1513;47.650;10.720;2023-04-15T14:39:29;14.40;;;6.70;;
3006;SDS011;1513;47.650;10.720;2023-04-15T14:41:55;7.10;;;5.20;;
3006;SDS011;1513;47.650;10.720;2023-04-15T14:44:21;14.10;;;5.90;;
3006;SDS011;1513;47.650;10.720;2023-04-15T14:46:48;7.60;;;4.30;;
3006;SDS011;1513;47.650;10.720;2023-04-15T14:49:15;6.90;;;4.60;;
3006;SDS011;1513;47.650;10.720;2023-04-15T14:51:41;7.80;;;4.97;;
3006;SDS011;1513;47.650;10.720;2023-04-15T14:54:07;11.80;;;5.80;;
3006;SDS011;1513;47.650;10.720;2023-04-15T14:56:34;8.97;;;5.00;;
3006;SDS011;1513;47.650;10.720;2023-04-15T14:59:00;7.97;;;4.77;;
3006;SDS011;1513;47.650;10.720;2023-04-15T15:01:26;9.13;;;3.90;;
3006;SDS011;1513;47.650;10.720;2023-04-15T15:03:53;11.27;;;7.27;;
3006;SDS011;1513;47.650;10.720;2023-04-15T15:06:20;9.73;;;7.10;;
3006;SDS011;1513;47.650;10.720;2023-04-15T15:08:47;19.23;;;10.53;;
3006;SDS011;1513;47.650;10.720;2023-04-15T15:11:14;9.30;;;5.30;;
3006;SDS011;1513;47.650;10.720;2023-04-15T15:13:41;10.60;;;6.00;;
3006;SDS011;1513;47.650;10.720;2023-04-15T15:16:07;7.03;;;4.10;;
3006;SDS011;1513;47.650;10.720;2023-04-15T15:18:34;7.90;;;4.43;;
3006;SDS011;1513;47.650;10.720;2023-04-15T15:21:00;4.50;;;2.87;;
3006;SDS011;1513;47.650;10.720;2023-04-15T15:23:26;7.27;;;4.07;;
3006;SDS011;1513;47.650;10.720;2023-04-15T15:25:53;7.93;;;5.20;;
3006;SDS011;1513;47.650;10.720;2023-04-15T15:28:19;25.80;;;11.17;;
3006;SDS011;1513;47.650;10.720;2023-04-15T15:30:46;19.13;;;10.60;;